createdAt,value
2023-05-09T00:00:54.293Z,47.53
2023-05-09T00:03:21.342Z,47.27
2023-05-09T00:05:49.056Z,47.54
2023-05-09T00:08:16.177Z,47.75
2023-05-09T00:10:43.586Z,48.00
2023-05-09T00:13:10.736Z,47.97
2023-05-09T00:15:37.986Z,48.06
2023-05-09T00:18:05.173Z,48.12
2023-05-09T00:20:34.215Z,47.98
2023-05-09T00:23:01.202Z,48.06
2023-05-09T00:25:28.531Z,48.10
2023-05-09T00:27:55.536Z,48.27
2023-05-09T00:30:22.524Z,48.13
2023-05-09T00:32:49.713Z,48.35
2023-05-09T00:35:17.071Z,48.08
2023-05-09T00:37:44.163Z,47.89
2023-05-09T00:40:11.738Z,47.78
2023-05-09T00:42:38.792Z,47.60
2023-05-09T00:45:07.225Z,47.62
2023-05-09T00:47:34.985Z,47.97
2023-05-09T00:50:02.637Z,48.30
2023-05-09T00:52:30.366Z,48.02
2023-05-09T00:54:57.221Z,48.03
2023-05-09T00:57:42.481Z,48.13
2023-05-09T01:00:29.541Z,48.21
2023-05-09T01:03:16.679Z,48.69
2023-05-09T01:05:55.201Z,48.38
2023-05-09T01:08:37.781Z,48.13
2023-05-09T01:11:23.307Z,48.11
2023-05-09T01:14:13.868Z,48.77
2023-05-09T01:17:14.731Z,48.82
2023-05-09T01:19:57.243Z,48.71
2023-05-09T01:22:30.434Z,48.48
2023-05-09T01:24:57.408Z,48.86
2023-05-09T01:27:33.347Z,48.78
2023-05-09T01:30:04.804Z,48.94
2023-05-09T01:32:35.691Z,48.52
2023-05-09T01:35:05.362Z,48.41
2023-05-09T01:37:35.803Z,48.51
2023-05-09T01:40:30.743Z,47.89
2023-05-09T01:43:05.684Z,48.39
2023-05-09T01:45:34.382Z,48.33
2023-05-09T01:48:02.607Z,48.13
2023-05-09T01:50:30.902Z,47.82
2023-05-09T01:53:00.434Z,47.75
2023-05-09T01:55:29.423Z,47.48
2023-05-09T01:57:59.080Z,47.33
2023-05-09T02:00:27.314Z,47.67
2023-05-09T02:02:56.336Z,47.89
2023-05-09T02:05:28.426Z,47.46
2023-05-09T02:07:59.776Z,47.32
2023-05-09T02:10:30.905Z,47.29
2023-05-09T02:12:58.157Z,47.68
2023-05-09T02:15:26.365Z,47.40
2023-05-09T02:17:53.447Z,47.01
2023-05-09T02:20:20.535Z,46.97
2023-05-09T02:22:48.156Z,47.20
2023-05-09T02:25:15.829Z,47.16
2023-05-09T02:27:47.145Z,46.98
2023-05-09T02:30:23.582Z,46.91
2023-05-09T02:32:53.722Z,47.61
2023-05-09T02:35:23.116Z,47.54
2023-05-09T02:37:50.144Z,47.67
2023-05-09T02:40:18.470Z,47.47
2023-05-09T02:42:45.548Z,47.23
2023-05-09T02:45:12.583Z,47.37
2023-05-09T02:47:39.871Z,47.77
2023-05-09T02:50:07.420Z,47.72
2023-05-09T02:52:34.536Z,47.59
2023-05-09T02:55:03.605Z,47.76
2023-05-09T02:57:31.162Z,47.52
2023-05-09T02:59:58.153Z,47.29
2023-05-09T03:02:25.183Z,47.40
2023-05-09T03:04:52.437Z,47.42
2023-05-09T03:07:19.414Z,47.28
2023-05-09T03:09:46.365Z,47.50
2023-05-09T03:12:13.310Z,47.62
2023-05-09T03:14:40.391Z,47.71
2023-05-09T03:17:07.426Z,47.78
2023-05-09T03:19:34.415Z,47.67
2023-05-09T03:22:01.486Z,47.52
2023-05-09T03:24:28.479Z,47.84
2023-05-09T03:26:55.552Z,47.50
2023-05-09T03:29:22.545Z,48.35
2023-05-09T03:31:49.649Z,48.38
2023-05-09T03:34:16.693Z,49.00
2023-05-09T03:36:44.467Z,49.02
2023-05-09T03:39:11.782Z,48.52
2023-05-09T03:41:38.786Z,48.61
2023-05-09T03:44:06.049Z,48.92
2023-05-09T03:46:33.049Z,49.26
2023-05-09T03:49:00.027Z,49.58
2023-05-09T03:51:27.117Z,49.68
2023-05-09T03:53:54.047Z,49.63
2023-05-09T03:56:21.109Z,49.23
2023-05-09T03:58:48.456Z,48.81
2023-05-09T04:01:16.025Z,48.97
2023-05-09T04:03:43.291Z,49.19
2023-05-09T04:06:10.371Z,48.97
2023-05-09T04:08:37.481Z,48.67
2023-05-09T04:11:04.469Z,48.10
2023-05-09T04:13:33.136Z,48.42
2023-05-09T04:16:00.172Z,48.31
2023-05-09T04:18:27.254Z,48.25
2023-05-09T04:20:54.351Z,48.11
2023-05-09T04:23:21.330Z,48.09
2023-05-09T04:25:51.477Z,48.33
2023-05-09T04:28:18.435Z,48.21
2023-05-09T04:30:45.951Z,48.55
2023-05-09T04:33:13.278Z,48.78
2023-05-09T04:35:41.384Z,49.07
2023-05-09T04:38:08.546Z,48.71
2023-05-09T04:40:35.789Z,48.52
2023-05-09T04:43:03.426Z,48.49
2023-05-09T04:45:30.481Z,48.41
2023-05-09T04:47:57.552Z,48.44
2023-05-09T04:50:24.858Z,48.68
2023-05-09T04:52:51.880Z,48.81
2023-05-09T04:55:18.821Z,48.85
2023-05-09T04:57:45.797Z,48.61
2023-05-09T05:00:13.355Z,48.89
2023-05-09T05:02:40.345Z,48.88
2023-05-09T05:05:12.021Z,48.76
2023-05-09T05:07:39.783Z,48.54
2023-05-09T05:10:07.233Z,48.99
2023-05-09T05:12:34.386Z,49.25
2023-05-09T05:15:01.343Z,48.82
2023-05-09T05:17:29.747Z,48.90
2023-05-09T05:19:56.838Z,49.06
2023-05-09T05:22:24.446Z,49.21
2023-05-09T05:24:51.438Z,48.89
2023-05-09T05:27:18.527Z,49.28
2023-05-09T05:29:45.524Z,49.62
2023-05-09T05:32:12.702Z,49.30
2023-05-09T05:34:39.892Z,49.52
2023-05-09T05:37:06.845Z,49.57
2023-05-09T05:39:33.950Z,49.39
2023-05-09T05:42:00.894Z,49.34
2023-05-09T05:44:27.839Z,49.38
2023-05-09T05:46:54.859Z,49.48
2023-05-09T05:49:21.996Z,49.46
2023-05-09T05:51:48.998Z,49.74
2023-05-09T05:54:15.928Z,49.85
2023-05-09T05:56:42.948Z,49.76
2023-05-09T05:59:11.347Z,50.18
2023-05-09T06:01:40.170Z,50.66
2023-05-09T06:04:07.321Z,50.77
2023-05-09T06:06:34.734Z,50.37
2023-05-09T06:09:01.673Z,50.52
2023-05-09T06:11:29.130Z,50.55
2023-05-09T06:13:56.214Z,50.57
2023-05-09T06:16:23.386Z,50.83
2023-05-09T06:18:50.946Z,50.55
2023-05-09T06:21:18.819Z,50.87
2023-05-09T06:26:15.954Z,50.47
2023-05-09T06:28:42.931Z,50.63
2023-05-09T06:31:10.047Z,50.86
2023-05-09T06:33:37.144Z,51.14
2023-05-09T06:36:04.397Z,51.14
2023-05-09T06:38:31.434Z,50.94
2023-05-09T06:40:58.428Z,51.29
2023-05-09T06:43:25.356Z,51.39
2023-05-09T06:45:52.533Z,51.09
2023-05-09T06:48:19.551Z,51.24
2023-05-09T06:50:46.683Z,51.22
2023-05-09T06:53:13.822Z,51.31
2023-05-09T06:55:41.083Z,51.53
2023-05-09T06:58:08.144Z,51.70
2023-05-09T07:00:35.807Z,51.48
2023-05-09T07:03:02.940Z,51.99
2023-05-09T07:05:30.114Z,51.61
2023-05-09T07:07:57.201Z,51.86
2023-05-09T07:10:24.516Z,51.82
2023-05-09T07:12:51.774Z,52.22
2023-05-09T07:15:28.644Z,52.35
2023-05-09T07:17:59.783Z,52.62
2023-05-09T07:20:26.839Z,52.68
2023-05-09T07:22:53.837Z,52.55
2023-05-09T07:25:20.964Z,52.28
2023-05-09T07:27:47.963Z,52.46
2023-05-09T07:30:15.293Z,52.78
2023-05-09T07:32:42.444Z,52.38
2023-05-09T07:35:09.430Z,51.88
2023-05-09T07:37:36.892Z,52.06
2023-05-09T07:40:06.125Z,52.28
2023-05-09T07:42:33.354Z,52.53
2023-05-09T07:45:00.547Z,52.31
2023-05-09T07:47:27.673Z,52.45
2023-05-09T07:49:54.677Z,52.49
2023-05-09T07:52:21.691Z,52.63
2023-05-09T07:54:48.858Z,52.59
2023-05-09T07:57:16.678Z,52.46
2023-05-09T07:59:43.672Z,52.49
2023-05-09T08:02:10.982Z,52.19
2023-05-09T08:04:38.960Z,52.64
2023-05-09T08:07:07.432Z,53.00
2023-05-09T08:09:34.783Z,52.84
2023-05-09T08:12:01.776Z,52.65
2023-05-09T08:14:29.110Z,52.90
2023-05-09T08:16:56.123Z,52.75
2023-05-09T08:19:26.380Z,52.94
2023-05-09T08:21:53.573Z,53.09
2023-05-09T08:24:20.675Z,53.43
2023-05-09T08:26:47.702Z,53.69
2023-05-09T08:29:14.929Z,53.26
2023-05-09T08:31:42.153Z,53.15
2023-05-09T08:34:09.599Z,53.94
2023-05-09T08:36:36.600Z,53.79
2023-05-09T08:39:03.714Z,54.02
2023-05-09T08:41:36.245Z,54.31
2023-05-09T08:44:04.333Z,54.16
2023-05-09T08:46:36.936Z,54.10
2023-05-09T08:49:07.425Z,54.23
2023-05-09T08:51:36.032Z,54.80
2023-05-09T08:54:03.590Z,54.38
2023-05-09T08:56:31.692Z,54.56
2023-05-09T08:58:59.196Z,54.23
2023-05-09T09:01:29.538Z,54.27
2023-05-09T09:03:56.711Z,54.48
2023-05-09T09:06:25.922Z,54.33
2023-05-09T09:08:55.171Z,54.07
2023-05-09T09:11:22.911Z,53.71
2023-05-09T09:13:52.944Z,54.25
2023-05-09T09:16:23.138Z,53.44
2023-05-09T09:18:52.423Z,54.16
2023-05-09T09:21:20.482Z,54.15
2023-05-09T09:23:49.000Z,54.33
2023-05-09T09:26:16.649Z,54.13
2023-05-09T09:28:43.895Z,54.54
2023-05-09T09:31:28.582Z,53.63
2023-05-09T09:34:03.332Z,54.19
2023-05-09T09:36:32.604Z,54.54
2023-05-09T09:39:01.247Z,54.54
2023-05-09T09:41:35.583Z,54.44
2023-05-09T09:44:14.241Z,53.81
2023-05-09T09:46:56.648Z,53.84
2023-05-09T09:49:25.657Z,53.57
2023-05-09T09:51:59.373Z,53.41
2023-05-09T09:54:28.104Z,53.70
2023-05-09T09:56:56.774Z,54.47
2023-05-09T09:59:26.176Z,53.65
2023-05-09T10:01:54.632Z,54.16
2023-05-09T10:04:22.027Z,53.59
2023-05-09T10:06:57.482Z,52.91
2023-05-09T10:09:25.566Z,53.33
2023-05-09T10:11:53.630Z,53.26
2023-05-09T10:14:24.181Z,53.18
2023-05-09T10:16:58.723Z,52.70
2023-05-09T10:19:27.531Z,53.33
2023-05-09T10:21:57.027Z,53.18
2023-05-09T10:24:35.625Z,52.81
2023-05-09T10:27:07.080Z,52.08
2023-05-09T10:29:41.613Z,51.87
2023-05-09T10:32:31.551Z,50.92
2023-05-09T10:35:04.840Z,51.45
2023-05-09T10:37:33.542Z,51.60
2023-05-09T10:40:05.251Z,51.20
2023-05-09T10:42:32.720Z,51.31
2023-05-09T10:44:59.947Z,51.46
2023-05-09T10:47:28.233Z,50.87
2023-05-09T10:49:56.108Z,51.02
2023-05-09T10:52:23.817Z,50.69
2023-05-09T10:55:01.865Z,50.10
2023-05-09T10:57:30.473Z,50.55
2023-05-09T10:59:58.430Z,50.36
2023-05-09T11:02:29.588Z,50.30
2023-05-09T11:05:19.430Z,49.50
2023-05-09T11:07:46.542Z,49.63
2023-05-09T11:10:18.554Z,49.63
2023-05-09T11:12:59.659Z,49.93
2023-05-09T11:15:30.088Z,49.48
2023-05-09T11:20:35.913Z,49.66
2023-05-09T11:23:07.043Z,49.91
2023-05-09T11:25:34.079Z,50.10
2023-05-09T11:28:02.124Z,49.48
2023-05-09T11:30:40.029Z,49.59
2023-05-09T11:33:07.388Z,49.70
2023-05-09T11:35:38.735Z,49.84
2023-05-09T11:38:06.845Z,49.32
2023-05-09T11:40:35.012Z,49.41
2023-05-09T11:43:02.235Z,49.87
2023-05-09T11:45:31.243Z,49.74
2023-05-09T11:47:59.129Z,49.12
2023-05-09T11:50:26.462Z,48.85
2023-05-09T11:52:54.431Z,49.28
2023-05-09T11:55:23.115Z,48.97
2023-05-09T11:57:52.697Z,48.86
2023-05-09T12:00:25.018Z,48.91
2023-05-09T12:02:53.565Z,48.57
2023-05-09T12:05:23.057Z,49.31
2023-05-09T12:07:50.359Z,49.34
2023-05-09T12:10:20.280Z,49.20
2023-05-09T12:12:49.043Z,48.45
2023-05-09T12:15:17.684Z,47.90
2023-05-09T12:17:48.158Z,47.94
2023-05-09T12:20:16.649Z,48.06
2023-05-09T12:22:44.143Z,47.89
2023-05-09T12:25:12.408Z,47.62
2023-05-09T12:27:41.217Z,47.21
2023-05-09T12:30:10.994Z,47.98
2023-05-09T12:32:40.590Z,47.52
2023-05-09T12:35:09.759Z,47.99
2023-05-09T12:37:36.973Z,48.53
2023-05-09T12:40:13.066Z,48.30
2023-05-09T12:42:44.660Z,48.79
2023-05-09T12:45:12.240Z,48.49
2023-05-09T12:47:39.552Z,48.70
2023-05-09T12:50:08.373Z,48.98
2023-05-09T12:52:41.732Z,47.36
2023-05-09T12:55:19.153Z,47.54
2023-05-09T12:57:58.306Z,47.60
2023-05-09T13:00:25.648Z,46.90
2023-05-09T13:02:53.123Z,47.19
2023-05-09T13:05:22.315Z,47.12
2023-05-09T13:07:52.520Z,46.51
2023-05-09T13:10:24.109Z,46.96
2023-05-09T13:12:51.889Z,47.70
2023-05-09T13:15:21.008Z,47.87
2023-05-09T13:17:49.205Z,47.69
2023-05-09T13:20:17.341Z,48.20
2023-05-09T13:22:45.558Z,47.64
2023-05-09T13:25:13.150Z,47.67
2023-05-09T13:27:40.134Z,47.34
2023-05-09T13:30:07.943Z,46.98
2023-05-09T13:32:36.869Z,47.24
2023-05-09T13:35:09.639Z,47.10
2023-05-09T13:37:36.656Z,47.89
2023-05-09T13:40:04.446Z,48.06
2023-05-09T13:42:34.468Z,48.32
2023-05-09T13:45:01.547Z,48.58
2023-05-09T13:47:28.804Z,48.24
2023-05-09T13:49:55.799Z,47.53
2023-05-09T13:52:23.360Z,47.71
2023-05-09T13:54:50.367Z,47.34
2023-05-09T13:57:17.289Z,47.64
2023-05-09T13:59:44.341Z,47.31
2023-05-09T14:02:11.768Z,46.75
2023-05-09T14:04:39.350Z,46.83
2023-05-09T14:07:07.138Z,46.00
2023-05-09T14:09:40.283Z,45.91
2023-05-09T14:12:07.409Z,45.54
2023-05-09T14:14:34.405Z,45.15
2023-05-09T14:17:01.659Z,45.08
2023-05-09T14:19:33.184Z,45.80
2023-05-09T14:22:00.159Z,45.92
2023-05-09T14:24:30.921Z,45.50
2023-05-09T14:26:58.020Z,45.56
2023-05-09T14:29:25.031Z,45.89
2023-05-09T14:31:52.166Z,45.66
2023-05-09T14:34:19.472Z,45.96
2023-05-09T14:36:46.513Z,46.34
2023-05-09T14:39:13.511Z,46.48
2023-05-09T14:41:40.560Z,45.79
2023-05-09T14:44:07.580Z,46.15
2023-05-09T14:46:34.657Z,46.06
2023-05-09T14:49:04.385Z,46.35
2023-05-09T14:51:31.975Z,46.68
2023-05-09T14:53:59.505Z,46.03
2023-05-09T14:56:26.993Z,45.28
2023-05-09T14:58:53.988Z,45.19
2023-05-09T15:01:21.551Z,45.29
2023-05-09T15:03:48.516Z,45.49
2023-05-09T15:06:15.750Z,44.67
2023-05-09T15:08:42.868Z,44.55
2023-05-09T15:11:09.852Z,44.41
2023-05-09T15:13:37.001Z,44.82
2023-05-09T15:16:05.210Z,44.32
2023-05-09T15:18:33.718Z,44.59
2023-05-09T15:21:01.078Z,44.81
2023-05-09T15:23:28.123Z,45.19
2023-05-09T15:25:55.297Z,45.16
2023-05-09T15:28:22.528Z,45.08
2023-05-09T15:30:49.641Z,45.18
2023-05-09T15:33:16.594Z,44.69
2023-05-09T15:35:44.331Z,45.08
2023-05-09T15:38:12.465Z,45.19
2023-05-09T15:40:41.250Z,45.70
2023-05-09T15:43:08.585Z,46.02
2023-05-09T15:45:37.531Z,45.38
2023-05-09T15:48:04.945Z,45.56
2023-05-09T15:50:31.952Z,45.23
2023-05-09T15:52:58.926Z,45.47
2023-05-09T15:55:28.034Z,45.86
2023-05-09T15:57:55.842Z,45.56
2023-05-09T16:00:23.045Z,46.22
2023-05-09T16:02:50.497Z,45.73
2023-05-09T16:05:17.899Z,45.23
2023-05-09T16:07:47.037Z,44.73
2023-05-09T16:10:14.337Z,45.22
2023-05-09T16:12:41.516Z,45.01
2023-05-09T16:15:08.969Z,45.52
2023-05-09T16:17:35.969Z,45.51
2023-05-09T16:20:03.038Z,45.51
2023-05-09T16:22:30.215Z,45.19
2023-05-09T16:24:57.219Z,45.26
2023-05-09T16:27:24.225Z,45.49
2023-05-09T16:29:51.237Z,45.66
2023-05-09T16:32:18.318Z,45.58
2023-05-09T16:34:45.270Z,45.88
2023-05-09T16:37:12.585Z,45.91
2023-05-09T16:39:39.587Z,46.05
2023-05-09T16:42:06.685Z,46.92
2023-05-09T16:44:33.704Z,46.30
2023-05-09T16:47:01.286Z,45.77
2023-05-09T16:49:28.620Z,45.91
2023-05-09T16:51:55.652Z,45.84
2023-05-09T16:54:23.428Z,46.04
2023-05-09T16:56:50.431Z,45.74
2023-05-09T16:59:17.693Z,45.59
2023-05-09T17:01:44.654Z,46.37
2023-05-09T17:04:11.798Z,46.33
2023-05-09T17:06:38.862Z,46.45
2023-05-09T17:09:05.963Z,46.66
2023-05-09T17:11:33.621Z,46.80
2023-05-09T17:14:02.611Z,46.77
2023-05-09T17:16:29.805Z,46.92
2023-05-09T17:18:56.830Z,47.47
2023-05-09T17:21:23.840Z,47.32
2023-05-09T17:23:53.981Z,47.32
2023-05-09T17:26:21.577Z,47.59
2023-05-09T17:28:49.095Z,47.34
2023-05-09T17:31:16.165Z,47.21
2023-05-09T17:33:43.857Z,47.60
2023-05-09T17:36:10.894Z,47.89
2023-05-09T17:38:38.079Z,48.97
2023-05-09T17:41:05.105Z,49.89
2023-05-09T17:43:32.143Z,50.98
2023-05-09T17:45:59.369Z,51.40
2023-05-09T17:48:26.391Z,52.35
2023-05-09T17:50:53.573Z,52.26
2023-05-09T17:53:20.664Z,53.05
2023-05-09T17:55:47.978Z,52.96
2023-05-09T17:58:15.309Z,54.28
2023-05-09T18:00:42.444Z,56.52
2023-05-09T18:03:09.486Z,57.50
2023-05-09T18:05:36.524Z,58.46
2023-05-09T18:08:03.777Z,59.14
2023-05-09T18:10:30.780Z,59.09
2023-05-09T18:12:57.818Z,59.64
2023-05-09T18:15:25.706Z,58.63
2023-05-09T18:17:53.970Z,57.85
2023-05-09T18:20:21.275Z,57.34
2023-05-09T18:22:48.283Z,56.15
2023-05-09T18:25:15.308Z,54.79
2023-05-09T18:27:42.242Z,53.56
2023-05-09T18:30:09.617Z,52.04
2023-05-09T18:32:36.603Z,51.25
2023-05-09T18:35:04.268Z,50.70
2023-05-09T18:37:31.307Z,49.94
2023-05-09T18:39:58.300Z,49.36
2023-05-09T18:42:25.379Z,49.24
2023-05-09T18:44:52.559Z,48.52
2023-05-09T18:47:19.602Z,48.12
2023-05-09T18:49:47.703Z,47.54
2023-05-09T18:52:15.327Z,47.76
2023-05-09T18:54:42.391Z,53.78
2023-05-09T18:57:10.124Z,59.04
2023-05-09T18:59:37.726Z,61.90
2023-05-09T19:02:04.805Z,63.74
2023-05-09T19:04:31.888Z,65.16
2023-05-09T19:06:59.688Z,66.33
2023-05-09T19:09:26.946Z,67.00
2023-05-09T19:11:54.218Z,67.44
2023-05-09T19:14:21.162Z,68.30
2023-05-09T19:16:48.370Z,69.24
2023-05-09T19:19:15.924Z,69.87
2023-05-09T19:21:43.190Z,70.50
2023-05-09T19:24:10.298Z,71.30
2023-05-09T19:26:37.266Z,71.68
2023-05-09T19:29:08.230Z,71.46
2023-05-09T19:31:37.666Z,72.20
2023-05-09T19:34:04.659Z,72.37
2023-05-09T19:36:31.729Z,73.13
2023-05-09T19:38:58.828Z,73.05
2023-05-09T19:41:26.165Z,73.07
2023-05-09T19:43:53.547Z,72.87
2023-05-09T19:46:22.445Z,73.14
2023-05-09T19:48:49.536Z,73.68
2023-05-09T19:51:16.594Z,74.00
2023-05-09T19:53:43.661Z,74.05
2023-05-09T19:56:10.830Z,74.12
2023-05-09T19:58:37.890Z,74.23
2023-05-09T20:01:06.863Z,74.20
2023-05-09T20:03:37.107Z,74.27
2023-05-09T20:06:04.467Z,73.89
2023-05-09T20:08:31.428Z,74.15
2023-05-09T20:11:00.255Z,74.34
2023-05-09T20:13:27.861Z,74.52
2023-05-09T20:15:55.397Z,75.20
2023-05-09T20:18:22.383Z,75.25
2023-05-09T20:20:49.391Z,74.68
2023-05-09T20:23:16.394Z,74.73
2023-05-09T20:25:43.368Z,74.13
2023-05-09T20:28:12.032Z,74.47
2023-05-09T20:30:39.044Z,74.67
2023-05-09T20:33:06.090Z,75.29
2023-05-09T20:35:33.198Z,75.23
2023-05-09T20:38:00.166Z,75.30
2023-05-09T20:40:27.133Z,75.20
2023-05-09T20:42:54.220Z,75.69
2023-05-09T20:45:21.344Z,75.91
2023-05-09T20:47:48.402Z,76.42
2023-05-09T20:50:15.692Z,76.39
2023-05-09T20:52:42.869Z,76.70
2023-05-09T20:55:10.003Z,76.20
2023-05-09T20:57:36.979Z,75.75
2023-05-09T21:00:04.282Z,76.08
2023-05-09T21:02:31.391Z,76.69
2023-05-09T21:04:58.420Z,76.76
2023-05-09T21:07:25.433Z,77.07
2023-05-09T21:09:54.187Z,76.58
2023-05-09T21:12:21.269Z,76.67
2023-05-09T21:14:49.165Z,76.77
2023-05-09T21:17:16.392Z,77.75
2023-05-09T21:19:43.522Z,78.08
2023-05-09T21:22:10.489Z,77.95
2023-05-09T21:24:37.535Z,77.49
2023-05-09T21:27:04.995Z,77.04
2023-05-09T21:29:31.961Z,77.03
2023-05-09T21:31:58.915Z,77.81
2023-05-09T21:34:25.981Z,78.79
2023-05-09T21:36:52.990Z,78.67
2023-05-09T21:39:19.916Z,78.10
2023-05-09T21:41:46.877Z,77.67
2023-05-09T21:44:13.946Z,78.05
2023-05-09T21:46:41.425Z,78.57
2023-05-09T21:49:08.427Z,78.02
2023-05-09T21:51:35.387Z,77.58
2023-05-09T21:54:02.451Z,77.60
2023-05-09T21:56:29.778Z,78.89
2023-05-09T21:58:56.798Z,79.62
2023-05-09T22:01:23.874Z,79.88
2023-05-09T22:03:51.842Z,80.04
2023-05-09T22:06:18.891Z,79.86
2023-05-09T22:08:45.911Z,79.40
2023-05-09T22:11:14.788Z,78.39
2023-05-09T22:13:42.649Z,79.11
2023-05-09T22:16:09.893Z,79.66
2023-05-09T22:18:37.321Z,78.80
2023-05-09T22:21:04.552Z,79.45
2023-05-09T22:23:31.599Z,79.65
2023-05-09T22:25:58.552Z,79.79
2023-05-09T22:28:25.609Z,79.78
2023-05-09T22:30:52.622Z,79.61
2023-05-09T22:33:20.380Z,78.56
2023-05-09T22:35:47.469Z,79.25
2023-05-09T22:38:14.597Z,78.66
2023-05-09T22:40:41.631Z,78.19
2023-05-09T22:43:10.639Z,78.80
2023-05-09T22:45:37.924Z,79.42
2023-05-09T22:48:05.360Z,79.92
2023-05-09T22:50:32.493Z,79.75
2023-05-09T22:53:00.489Z,79.17
2023-05-09T22:55:27.752Z,78.88
2023-05-09T22:57:54.715Z,79.02
2023-05-09T23:00:21.999Z,79.56
2023-05-09T23:02:49.164Z,79.16
2023-05-09T23:05:16.266Z,78.87
2023-05-09T23:07:43.263Z,78.56
2023-05-09T23:10:10.526Z,78.30
2023-05-09T23:12:38.291Z,78.44
2023-05-09T23:15:07.527Z,78.25
2023-05-09T23:17:34.677Z,78.16
2023-05-09T23:20:01.788Z,78.17
2023-05-09T23:22:29.075Z,78.20
2023-05-09T23:24:56.274Z,78.18
2023-05-09T23:27:23.561Z,77.92
2023-05-09T23:29:50.618Z,78.28
2023-05-09T23:32:17.575Z,78.26
2023-05-09T23:34:44.596Z,78.09
2023-05-09T23:37:12.110Z,77.88
2023-05-09T23:39:39.061Z,77.95
2023-05-09T23:42:06.178Z,78.73
2023-05-09T23:44:33.332Z,79.35
2023-05-09T23:47:02.097Z,79.05
2023-05-09T23:49:29.220Z,77.89
2023-05-09T23:51:56.346Z,77.18
2023-05-09T23:54:24.552Z,77.00
2023-05-09T23:56:51.593Z,77.73
2023-05-09T23:59:18.570Z,77.11
